Time;durP1;ratioP1;P1;durP2;ratioP2;P2;SDS_P1;SDS_P2;PMS_P1;PMS_P2;Temp;Humidity;BMP_temperature;BMP_pressure;BME280_temperature;BME280_humidity;BME280_pressure;Samples;Min_cycle;Max_cycle;Signal;HPM_P1;HPM_P2
2022/11/25 00:01:05;;;;;;;;;;;;;;;18.01;47.67;100423.70;101851;1333;75719;-84
2022/11/25 00:03:34;;;;;;;;;;;;;;;18.01;47.84;100425.99;101867;1337;62244;-84
2022/11/25 00:06:18;;;;;;;;;;;;;;;18.01;47.66;100424.75;101845;1338;62106;-84
2022/11/25 00:08:44;;;;;;;;;;;;;;;18.00;47.69;100431.20;101833;1331;72622;-84
2022/11/25 00:11:09;;;;;;;;;;;;;;;18.01;47.70;100432.93;101824;1329;62574;-84
2022/11/25 00:14:02;;;;;;;;;;;;;;;18.01;47.72;100437.41;101816;1337;62217;-84
2022/11/25 00:16:27;;;;;;;;;;;;;;;18.01;47.70;100438.48;101718;1340;62050;-84
2022/11/25 00:18:53;;;;;;;;;;;;;;;18.01;47.54;100438.50;101628;1342;62415;-83
2022/11/25 00:21:22;;;;;;;;;;;;;;;18.00;47.55;100441.90;101614;1337;62220;-84
2022/11/25 00:23:52;;;;;;;;;;;;;;;18.00;47.48;100440.48;101553;1334;62042;-84
2022/11/25 00:26:18;;;;;;;;;;;;;;;18.00;47.70;100445.83;101617;1338;63947;-84
2022/11/25 00:28:44;;;;;;;;;;;;;;;18.00;47.58;100443.48;101619;1341;72510;-84
2022/11/25 00:31:10;;;;;;;;;;;;;;;18.00;47.67;100442.45;101642;1342;59840;-84
2022/11/25 00:33:36;;;;;;;;;;;;;;;18.00;47.41;100445.48;101647;1342;62215;-84
2022/11/25 00:36:02;;;;;;;;;;;;;;;18.00;47.54;100445.31;101707;1342;62141;-84
2022/11/25 00:38:27;;;;;;;;;;;;;;;18.00;47.50;100447.09;101772;1324;62144;-84
2022/11/25 00:46:21;;;;;;;;;;;;;;;17.99;47.47;100450.88;101848;1338;62237;-84
2022/11/25 00:48:46;;;;;;;;;;;;;;;17.99;47.37;100452.50;101873;1331;62140;-83
2022/11/25 00:51:13;;;;;;;;;;;;;;;17.99;47.44;100456.21;101860;1332;62715;-84
2022/11/25 00:53:38;;;;;;;;;;;;;;;17.99;47.35;100455.52;101942;1332;62392;-84
2022/11/25 00:56:13;;;;;;;;;;;;;;;17.99;47.49;100460.14;102147;1325;62172;-84
2022/11/25 00:58:39;;;;;;;;;;;;;;;17.98;47.39;100460.73;102123;1332;73545;-85
2022/11/25 01:01:04;;;;;;;;;;;;;;;17.98;47.36;100462.52;102124;1329;62085;-84
2022/11/25 01:03:30;;;;;;;;;;;;;;;17.98;47.48;100465.73;102136;1325;62278;-84
2022/11/25 01:05:59;;;;;;;;;;;;;;;17.98;47.42;100467.32;102156;1329;62136;-84
2022/11/25 01:08:25;;;;;;;;;;;;;;;17.98;47.30;100473.23;102129;1329;73697;-83
2022/11/25 01:10:56;;;;;;;;;;;;;;;17.98;47.40;100471.81;102100;1329;62128;-84
2022/11/25 01:13:22;;;;;;;;;;;;;;;17.98;47.29;100473.75;102201;1323;62039;-83
2022/11/25 01:15:47;;;;;;;;;;;;;;;17.98;47.35;100482.47;102149;1325;62284;-83
2022/11/25 01:18:12;;;;;;;;;;;;;;;17.98;47.46;100482.66;102131;1326;62079;-83
2022/11/25 01:20:38;;;;;;;;;;;;;;;17.97;47.36;100481.07;102096;1325;62128;-83
2022/11/25 01:23:03;;;;;;;;;;;;;;;17.97;47.35;100479.69;102118;1323;62240;-83
2022/11/25 01:25:29;;;;;;;;;;;;;;;17.97;47.33;100484.64;102108;1326;62119;-84
2022/11/25 01:27:54;;;;;;;;;;;;;;;17.98;47.27;100489.27;102117;1329;62135;-84
2022/11/25 01:30:19;;;;;;;;;;;;;;;17.97;47.32;100489.30;102115;1325;62130;-84
2022/11/25 01:32:45;;;;;;;;;;;;;;;17.97;47.38;100489.14;102151;1325;62199;-84
2022/11/25 01:35:10;;;;;;;;;;;;;;;17.97;47.32;100489.86;102110;1325;76226;-86
2022/11/25 01:37:36;;;;;;;;;;;;;;;17.97;47.37;100489.31;102164;1325;62198;-84
2022/11/25 01:40:01;;;;;;;;;;;;;;;17.96;47.21;100483.45;102143;1329;62140;-83
2022/11/25 01:42:31;;;;;;;;;;;;;;;17.96;47.18;100483.80;102112;1325;62214;-83
2022/11/25 01:45:15;;;;;;;;;;;;;;;17.96;47.15;100481.00;102127;1325;63240;-84
2022/11/25 01:47:40;;;;;;;;;;;;;;;17.96;47.21;100479.02;102175;1330;61979;-84
2022/11/25 01:50:06;;;;;;;;;;;;;;;17.96;47.22;100479.73;102128;1323;62219;-84
2022/11/25 01:52:32;;;;;;;;;;;;;;;17.96;47.09;100482.10;102086;1318;62122;-84
2022/11/25 01:54:57;;;;;;;;;;;;;;;17.96;47.15;100483.49;102169;1331;62249;-84
2022/11/25 01:57:41;;;;;;;;;;;;;;;17.96;47.20;100484.74;102216;1319;62704;-84
2022/11/25 02:00:07;;;;;;;;;;;;;;;17.96;47.15;100484.75;102197;1326;62100;-84
2022/11/25 02:02:33;;;;;;;;;;;;;;;17.95;47.14;100488.86;102123;1325;62155;-82
2022/11/25 02:04:59;;;;;;;;;;;;;;;17.95;47.05;100491.20;102125;1325;62063;-83
2022/11/25 02:07:31;;;;;;;;;;;;;;;17.96;47.18;100495.27;102099;1333;62122;-83
2022/11/25 02:09:57;;;;;;;;;;;;;;;17.96;47.22;100499.36;102172;1325;62117;-83
2022/11/25 02:12:22;;;;;;;;;;;;;;;17.95;47.09;100505.44;102134;1332;62239;-83
2022/11/25 02:14:48;;;;;;;;;;;;;;;17.95;47.13;100504.04;102088;1329;62131;-83
2022/11/25 02:17:13;;;;;;;;;;;;;;;17.95;46.97;100513.80;102167;1325;62192;-83
2022/11/25 02:19:42;;;;;;;;;;;;;;;17.95;47.10;100513.29;102141;1324;62073;-83
2022/11/25 02:22:09;;;;;;;;;;;;;;;17.95;47.14;100514.01;102145;1325;62025;-84
2022/11/25 02:24:40;;;;;;;;;;;;;;;17.95;47.18;100517.02;102119;1325;62104;-83
2022/11/25 02:27:05;;;;;;;;;;;;;;;17.95;47.20;100517.57;102129;1325;72732;-83
2022/11/25 02:29:31;;;;;;;;;;;;;;;17.95;46.96;100525.04;102139;1329;62186;-83
2022/11/25 02:31:56;;;;;;;;;;;;;;;17.95;47.05;100528.05;102175;1316;62167;-83
2022/11/25 02:34:22;;;;;;;;;;;;;;;17.95;46.98;100536.27;102128;1325;62240;-85
2022/11/25 02:36:47;;;;;;;;;;;;;;;17.94;47.12;100541.83;102166;1330;62208;-83
2022/11/25 02:39:13;;;;;;;;;;;;;;;17.94;46.89;100546.26;102169;1309;73519;-84
2022/11/25 02:41:40;;;;;;;;;;;;;;;17.95;47.02;100545.54;102120;1326;62161;-83
2022/11/25 02:44:06;;;;;;;;;;;;;;;17.94;46.97;100548.05;102155;1331;62178;-83
2022/11/25 02:46:32;;;;;;;;;;;;;;;17.93;47.05;100547.36;102161;1325;62100;-85
2022/11/25 02:48:57;;;;;;;;;;;;;;;17.94;46.94;100552.52;102117;1325;62097;-84
2022/11/25 02:51:25;;;;;;;;;;;;;;;17.94;46.95;100556.95;102071;1326;62121;-84
2022/11/25 02:53:50;;;;;;;;;;;;;;;17.93;46.96;100555.02;102118;1325;62233;-83
2022/11/25 02:56:16;;;;;;;;;;;;;;;17.93;46.99;100553.23;102124;1325;62092;-82
2022/11/25 02:58:42;;;;;;;;;;;;;;;17.93;46.98;100554.13;102116;1325;63204;-84
2022/11/25 03:01:08;;;;;;;;;;;;;;;17.93;46.84;100556.27;102146;1328;62099;-84
2022/11/25 03:03:34;;;;;;;;;;;;;;;17.93;46.94;100557.00;102157;1323;76315;-84
2022/11/25 03:06:22;;;;;;;;;;;;;;;17.93;46.92;100562.36;102123;1323;62177;-84
2022/11/25 03:08:48;;;;;;;;;;;;;;;17.93;46.96;100560.35;101888;1338;62137;-83
2022/11/25 03:11:13;;;;;;;;;;;;;;;17.93;46.84;100560.56;101795;1332;62353;-83
2022/11/25 03:13:39;;;;;;;;;;;;;;;17.93;46.91;100568.92;101815;1331;62245;-83
2022/11/25 03:16:04;;;;;;;;;;;;;;;17.93;46.88;100574.65;101839;1338;62149;-83
2022/11/25 03:18:30;;;;;;;;;;;;;;;17.93;46.89;100576.78;101851;1329;62209;-83
2022/11/25 03:20:55;;;;;;;;;;;;;;;17.93;46.83;100579.98;101825;1332;62249;-83
2022/11/25 03:23:21;;;;;;;;;;;;;;;17.93;46.78;100579.63;101810;1334;62297;-83
2022/11/25 03:25:46;;;;;;;;;;;;;;;17.93;46.80;100583.33;101819;1334;62143;-83
2022/11/25 03:28:12;;;;;;;;;;;;;;;17.92;46.90;100584.65;101834;1332;62240;-83
2022/11/25 03:30:37;;;;;;;;;;;;;;;17.93;46.86;100590.64;101880;1337;62100;-83
2022/11/25 03:33:04;;;;;;;;;;;;;;;17.92;46.87;100589.44;101852;1331;62250;-83
2022/11/25 03:35:29;;;;;;;;;;;;;;;17.92;46.81;100591.93;101803;1333;62205;-83
2022/11/25 03:37:55;;;;;;;;;;;;;;;17.92;46.86;100593.93;101831;1334;62147;-83
2022/11/25 03:40:21;;;;;;;;;;;;;;;17.92;46.80;100594.98;101817;1326;62112;-83
2022/11/25 03:42:46;;;;;;;;;;;;;;;17.92;46.90;100593.55;101808;1333;62176;-83
2022/11/25 03:45:12;;;;;;;;;;;;;;;17.92;46.74;100592.49;101874;1333;62071;-83
2022/11/25 03:47:38;;;;;;;;;;;;;;;17.92;46.86;100593.05;102191;1319;62192;-84
2022/11/25 03:50:03;;;;;;;;;;;;;;;17.91;46.79;100597.68;102119;1325;75413;-83
2022/11/25 03:52:29;;;;;;;;;;;;;;;17.92;46.83;100599.43;102125;1325;62222;-84
2022/11/25 03:54:54;;;;;;;;;;;;;;;17.92;46.86;100603.02;102118;1323;62291;-84
2022/11/25 03:57:19;;;;;;;;;;;;;;;17.91;46.86;100600.73;102098;1329;62184;-84
2022/11/25 03:59:45;;;;;;;;;;;;;;;17.91;46.93;100601.63;102179;1325;62128;-84
2022/11/25 04:02:10;;;;;;;;;;;;;;;17.91;46.87;100608.02;102113;1325;62132;-84
2022/11/25 04:04:36;;;;;;;;;;;;;;;17.91;46.86;100610.18;102171;1325;62301;-84
2022/11/25 04:07:01;;;;;;;;;;;;;;;17.91;46.78;100613.36;102071;1328;62161;-84
2022/11/25 04:09:26;;;;;;;;;;;;;;;17.91;46.84;100613.92;102077;1326;62207;-83
2022/11/25 04:14:38;;;;;;;;;;;;;;;17.90;46.78;100624.27;102155;1325;75084;-83
2022/11/25 04:17:04;;;;;;;;;;;;;;;17.90;46.93;100626.39;102102;1328;62013;-83
2022/11/25 04:19:29;;;;;;;;;;;;;;;17.90;46.80;100629.59;102183;1322;62189;-85
2022/11/25 04:21:58;;;;;;;;;;;;;;;17.90;46.74;100629.06;102129;1325;62130;-83
2022/11/25 04:24:23;;;;;;;;;;;;;;;17.90;46.70;100632.27;102132;1310;76669;-83
2022/11/25 04:26:49;;;;;;;;;;;;;;;17.90;46.62;100633.19;102104;1327;62153;-83
2022/11/25 04:29:14;;;;;;;;;;;;;;;17.90;46.64;100640.48;102128;1325;62130;-82
2022/11/25 04:31:40;;;;;;;;;;;;;;;17.90;46.61;100642.98;102118;1325;62135;-83
2022/11/25 04:34:05;;;;;;;;;;;;;;;17.89;46.77;100643.36;102168;1325;62193;-83
2022/11/25 04:36:31;;;;;;;;;;;;;;;17.90;46.80;100644.77;102108;1317;63059;-83
2022/11/25 04:38:56;;;;;;;;;;;;;;;17.90;46.87;100642.80;102095;1326;63321;-83
2022/11/25 04:41:21;;;;;;;;;;;;;;;17.89;46.64;100645.33;102110;1325;62113;-83
2022/11/25 04:43:47;;;;;;;;;;;;;;;17.89;46.56;100644.45;102112;1326;62121;-84
2022/11/25 04:46:13;;;;;;;;;;;;;;;17.89;46.71;100645.66;102196;1326;62298;-83
2022/11/25 04:48:39;;;;;;;;;;;;;;;17.89;46.75;100652.09;102150;1325;76417;-83
2022/11/25 04:51:04;;;;;;;;;;;;;;;17.89;46.69;100659.03;102139;1325;60914;-83
2022/11/25 04:53:30;;;;;;;;;;;;;;;17.89;46.67;100658.70;102133;1325;62208;-83
2022/11/25 04:55:55;;;;;;;;;;;;;;;17.90;46.80;100662.77;102120;1326;62203;-84
2022/11/25 04:59:38;;;;;;;;;;;;;;;17.89;46.69;100664.58;102142;1329;62144;-84
2022/11/25 05:01:06;;;;;;;;;;;;;;;17.89;46.65;100670.96;102112;1325;75284;-83
2022/11/25 05:03:31;;;;;;;;;;;;;;;17.90;46.66;100674.32;102106;1325;62205;-84
2022/11/25 05:05:57;;;;;;;;;;;;;;;17.89;46.72;100677.01;102070;1320;62159;-84
2022/11/25 05:08:22;;;;;;;;;;;;;;;17.88;46.61;100681.00;102142;1325;62127;-84
2022/11/25 05:10:47;;;;;;;;;;;;;;;17.88;46.70;100683.52;102154;1325;62187;-84
2022/11/25 05:13:13;;;;;;;;;;;;;;;17.87;46.65;100688.52;102113;1325;61931;-84
2022/11/25 05:15:39;;;;;;;;;;;;;;;17.87;46.65;100684.98;102109;1325;62128;-84
2022/11/25 05:18:05;;;;;;;;;;;;;;;17.87;46.66;100691.77;102101;1326;62125;-84
2022/11/25 05:20:30;;;;;;;;;;;;;;;17.87;46.72;100696.92;102119;1325;62083;-85
2022/11/25 05:22:57;;;;;;;;;;;;;;;17.86;46.71;100699.09;102123;1325;62177;-84
2022/11/25 05:25:23;;;;;;;;;;;;;;;17.86;46.68;100705.15;102118;1325;75207;-84
2022/11/25 05:27:49;;;;;;;;;;;;;;;17.87;46.77;100708.33;102135;1326;61795;-84
2022/11/25 05:30:14;;;;;;;;;;;;;;;17.87;46.77;100712.42;102112;1325;62167;-84
2022/11/25 05:32:40;;;;;;;;;;;;;;;17.86;46.80;100719.75;102101;1316;62197;-84
2022/11/25 05:35:05;;;;;;;;;;;;;;;17.87;46.92;100724.20;102077;1317;62227;-83
2022/11/25 05:37:31;;;;;;;;;;;;;;;17.87;46.93;100728.24;102102;1317;62306;-83
2022/11/25 05:40:19;;;;;;;;;;;;;;;17.91;47.02;100730.17;102058;1317;62816;-84
2022/11/25 05:42:45;;;;;;;;;;;;;;;17.96;46.99;100736.31;101870;1327;61969;-83
2022/11/25 05:45:11;;;;;;;;;;;;;;;18.01;46.94;100739.77;101697;1323;62209;-83
2022/11/25 05:47:36;;;;;;;;;;;;;;;18.05;47.05;100738.48;101717;1316;62137;-83
2022/11/25 05:50:02;;;;;;;;;;;;;;;18.08;46.89;100742.15;101671;1323;61973;-83
2022/11/25 05:52:27;;;;;;;;;;;;;;;18.12;46.83;100747.33;101300;1320;706145;-83
2022/11/25 05:54:52;;;;;;;;;;;;;;;18.14;46.90;100749.34;101739;1316;62749;-83
2022/11/25 05:57:19;;;;;;;;;;;;;;;18.13;46.76;100749.95;101771;1315;64269;-83
2022/11/25 05:59:44;;;;;;;;;;;;;;;18.12;46.72;100756.59;101757;1320;62135;-83
2022/11/25 06:02:10;;;;;;;;;;;;;;;18.09;46.65;100759.41;101723;1323;62243;-84
2022/11/25 06:04:36;;;;;;;;;;;;;;;18.07;46.65;100763.27;101757;1320;62210;-84
2022/11/25 06:07:01;;;;;;;;;;;;;;;18.04;46.51;100772.89;101751;1321;60645;-84
2022/11/25 06:09:28;;;;;;;;;;;;;;;18.00;46.42;100776.53;101745;1316;71532;-84
2022/11/25 06:11:53;;;;;;;;;;;;;;;17.97;46.64;100782.55;101812;1324;75316;-84
2022/11/25 06:14:19;;;;;;;;;;;;;;;17.94;46.46;100788.23;101789;1319;62180;-84
2022/11/25 06:16:44;;;;;;;;;;;;;;;17.92;46.37;100792.98;101889;1324;60845;-85
2022/11/25 06:19:10;;;;;;;;;;;;;;;17.90;46.40;100797.33;101730;1323;62173;-82
2022/11/25 06:21:35;;;;;;;;;;;;;;;17.89;46.41;100797.96;102068;1320;60276;-83
2022/11/25 06:24:00;;;;;;;;;;;;;;;17.88;46.40;100798.53;102089;1310;60117;-83
2022/11/25 06:26:26;;;;;;;;;;;;;;;17.88;46.45;100802.25;101973;1313;60234;-82
2022/11/25 06:28:52;;;;;;;;;;;;;;;17.89;46.35;100807.92;102148;1317;62127;-82
2022/11/25 06:31:18;;;;;;;;;;;;;;;17.90;46.45;100810.55;102033;1319;62847;-83
2022/11/25 06:33:47;;;;;;;;;;;;;;;17.90;46.27;100812.46;101938;1316;62027;-84
2022/11/25 06:36:15;;;;;;;;;;;;;;;17.92;46.42;100813.65;102008;1319;62087;-85
2022/11/25 06:38:42;;;;;;;;;;;;;;;17.94;46.43;100818.70;101912;1320;62180;-84
2022/11/25 06:41:07;;;;;;;;;;;;;;;17.95;46.39;100822.21;102018;1319;60505;-85
2022/11/25 06:43:33;;;;;;;;;;;;;;;17.96;46.31;100825.53;101977;1320;61477;-83
2022/11/25 06:46:02;;;;;;;;;;;;;;;17.98;46.27;100822.40;102123;1329;60239;-83
2022/11/25 06:48:28;;;;;;;;;;;;;;;17.99;46.28;100828.17;101923;1319;61226;-83
2022/11/25 06:50:57;;;;;;;;;;;;;;;18.01;46.13;100826.83;102026;1320;62164;-83
2022/11/25 06:53:22;;;;;;;;;;;;;;;18.02;46.12;100822.31;102841;1320;75389;-84
2022/11/25 06:55:48;;;;;;;;;;;;;;;18.04;46.09;100827.01;102845;1328;60116;-83
2022/11/25 06:58:14;;;;;;;;;;;;;;;18.06;46.24;100824.77;102081;1315;60402;-84
2022/11/25 07:00:39;;;;;;;;;;;;;;;18.07;46.41;100832.34;101992;1326;60696;-83
2022/11/25 07:03:06;;;;;;;;;;;;;;;18.07;46.44;100840.00;102021;1317;60640;-84
2022/11/25 07:05:31;;;;;;;;;;;;;;;18.08;46.31;100842.98;101931;1315;62594;-84
2022/11/25 07:07:57;;;;;;;;;;;;;;;18.08;46.45;100842.28;102051;1316;61349;-83
2022/11/25 07:10:22;;;;;;;;;;;;;;;18.09;46.38;100843.45;102033;1317;62305;-85
2022/11/25 07:12:47;;;;;;;;;;;;;;;18.09;46.39;100846.65;102084;1317;62059;-84
2022/11/25 07:15:13;;;;;;;;;;;;;;;18.11;46.35;100847.46;102018;1317;62014;-84
2022/11/25 07:17:42;;;;;;;;;;;;;;;18.12;46.21;100848.66;101958;1331;62202;-85
2022/11/25 07:20:08;;;;;;;;;;;;;;;18.12;46.23;100850.42;101959;1320;62182;-85
2022/11/25 07:22:34;;;;;;;;;;;;;;;18.13;46.22;100853.08;101853;1335;62064;-85
2022/11/25 07:24:59;;;;;;;;;;;;;;;18.13;46.08;100853.02;101927;1323;62118;-84
2022/11/25 07:27:48;;;;;;;;;;;;;;;18.15;46.24;100852.77;101930;1318;62208;-85
2022/11/25 07:30:14;;;;;;;;;;;;;;;18.15;46.03;100856.49;101708;1315;62132;-82
2022/11/25 07:32:39;;;;;;;;;;;;;;;18.16;46.23;100861.98;101710;1322;62208;-84
2022/11/25 07:35:05;;;;;;;;;;;;;;;18.16;46.23;100859.61;101627;1322;62233;-84
2022/11/25 07:37:30;;;;;;;;;;;;;;;18.19;46.41;100860.40;101670;1322;62093;-84
2022/11/25 07:39:55;;;;;;;;;;;;;;;18.19;46.51;100862.14;101739;1315;60219;-86
2022/11/25 07:42:21;;;;;;;;;;;;;;;18.19;46.37;100864.42;101709;1323;61907;-85
2022/11/25 07:44:47;;;;;;;;;;;;;;;18.20;46.39;100868.64;101625;1324;62271;-85
2022/11/25 07:47:13;;;;;;;;;;;;;;;18.20;46.36;100869.73;101683;1316;62302;-85
2022/11/25 07:49:38;;;;;;;;;;;;;;;18.20;46.24;100873.45;101713;1315;62130;-85
2022/11/25 07:52:04;;;;;;;;;;;;;;;18.20;46.41;100874.02;101709;1323;62136;-84
2022/11/25 07:54:31;;;;;;;;;;;;;;;18.18;46.16;100875.71;101782;1315;60767;-85
2022/11/25 07:56:56;;;;;;;;;;;;;;;18.03;45.98;100879.98;101738;1318;62007;-83
2022/11/25 07:59:22;;;;;;;;;;;;;;;17.95;46.18;100884.36;101597;1323;62209;-84
2022/11/25 08:01:48;;;;;;;;;;;;;;;17.95;46.39;100889.69;101152;1323;62101;-84
2022/11/25 08:04:14;;;;;;;;;;;;;;;17.93;46.28;100894.92;101298;1321;62118;-84
2022/11/25 08:06:43;;;;;;;;;;;;;;;17.91;46.28;100899.84;101797;1323;62174;-84
2022/11/25 08:09:08;;;;;;;;;;;;;;;17.87;46.10;100905.78;102414;1320;59976;-83
2022/11/25 08:11:34;;;;;;;;;;;;;;;17.82;46.21;100913.35;101911;1319;60936;-83
2022/11/25 08:13:59;;;;;;;;;;;;;;;17.74;46.02;100916.29;101956;1312;62094;-84
2022/11/25 08:16:27;;;;;;;;;;;;;;;17.72;46.02;100921.71;101971;1320;60806;-84
2022/11/25 08:19:00;;;;;;;;;;;;;;;17.75;46.31;100924.38;102809;1333;73557;-85
2022/11/25 08:21:25;;;;;;;;;;;;;;;17.79;46.22;100926.02;102563;1333;76090;-84
2022/11/25 08:23:51;;;;;;;;;;;;;;;17.81;46.16;100932.27;101977;1320;62202;-85
2022/11/25 08:26:21;;;;;;;;;;;;;;;17.85;46.28;100933.88;101922;1315;62152;-84
2022/11/25 08:28:46;;;;;;;;;;;;;;;17.88;46.37;100935.29;101980;1316;73700;-84
2022/11/25 08:31:13;;;;;;;;;;;;;;;17.90;46.35;100938.38;102040;1317;62134;-84
2022/11/25 08:33:38;;;;;;;;;;;;;;;17.92;46.23;100940.77;101938;1310;62122;-83
2022/11/25 08:36:04;;;;;;;;;;;;;;;17.95;46.26;100940.42;102063;1309;60551;-84
2022/11/25 08:38:31;;;;;;;;;;;;;;;17.98;46.53;100938.85;102056;1326;62186;-84
2022/11/25 08:40:56;;;;;;;;;;;;;;;18.01;46.39;100938.67;102063;1317;62125;-84
2022/11/25 08:43:22;;;;;;;;;;;;;;;18.03;46.42;100937.86;101962;1318;60311;-85
2022/11/25 08:45:47;;;;;;;;;;;;;;;18.03;46.38;100939.27;102132;1315;62262;-83
2022/11/25 08:48:13;;;;;;;;;;;;;;;18.04;46.32;100939.95;102039;1317;60871;-83
2022/11/25 08:50:41;;;;;;;;;;;;;;;18.04;46.05;100944.20;102028;1319;61272;-84
2022/11/25 08:53:06;;;;;;;;;;;;;;;18.05;46.18;100947.35;102036;1309;75377;-83
2022/11/25 08:55:31;;;;;;;;;;;;;;;18.07;46.33;100954.38;102044;1315;60110;-84
2022/11/25 08:57:58;;;;;;;;;;;;;;;18.09;46.41;100957.98;102098;1317;62041;-84
2022/11/25 09:00:24;;;;;;;;;;;;;;;18.10;46.29;100956.70;102073;1317;62124;-84
2022/11/25 09:02:49;;;;;;;;;;;;;;;18.11;46.17;100957.39;102038;1317;60889;-84
2022/11/25 09:05:15;;;;;;;;;;;;;;;18.08;46.13;100963.21;101996;1310;62163;-84
2022/11/25 09:07:40;;;;;;;;;;;;;;;18.03;45.87;100966.57;102306;1319;62094;-87
2022/11/25 09:10:06;;;;;;;;;;;;;;;17.90;45.78;100969.90;102041;1313;62208;-84
2022/11/25 09:12:32;;;;;;;;;;;;;;;17.69;45.87;100971.19;102172;1317;60979;-84
2022/11/25 09:14:57;;;;;;;;;;;;;;;17.67;46.12;100976.45;102081;1317;63245;-84
2022/11/25 09:17:23;;;;;;;;;;;;;;;17.69;46.01;100971.73;102008;1317;62135;-83
2022/11/25 09:19:49;;;;;;;;;;;;;;;17.72;46.09;100970.11;102028;1318;61961;-84
2022/11/25 09:22:14;;;;;;;;;;;;;;;17.77;46.07;100970.95;101988;1309;62285;-86
2022/11/25 09:24:42;;;;;;;;;;;;;;;17.81;46.00;100967.20;101902;1313;62198;-84
2022/11/25 09:27:07;;;;;;;;;;;;;;;17.84;46.27;100964.71;102166;1317;64495;-83
2022/11/25 09:29:33;;;;;;;;;;;;;;;17.87;46.12;100965.61;101982;1316;62249;-82
2022/11/25 09:31:58;;;;;;;;;;;;;;;17.89;46.11;100965.66;101970;1312;60987;-84
2022/11/25 09:34:24;;;;;;;;;;;;;;;17.92;46.28;100966.94;102051;1310;62230;-82
2022/11/25 09:36:50;;;;;;;;;;;;;;;17.95;46.16;100972.30;101950;1317;62162;-82
2022/11/25 09:39:15;;;;;;;;;;;;;;;17.98;46.18;100968.77;101971;1312;62050;-83
2022/11/25 09:47:37;;;;;;;;;;;;;;;18.10;46.24;100970.58;101910;1313;70110;-82
2022/11/25 09:53:10;;;;;;;;;;;;;;;18.15;46.34;100965.15;101827;1313;62104;-83
2022/11/25 09:55:38;;;;;;;;;;;;;;;18.17;46.35;100961.67;101845;1320;62108;-85
2022/11/25 09:58:21;;;;;;;;;;;;;;;18.19;46.27;100957.61;101732;1313;62153;-85
2022/11/25 10:00:47;;;;;;;;;;;;;;;18.22;46.32;100959.39;101862;1315;75618;-85
2022/11/25 10:03:15;;;;;;;;;;;;;;;18.25;46.52;100962.61;101761;1315;62326;-84
2022/11/25 10:05:44;;;;;;;;;;;;;;;18.22;46.34;100963.67;101893;1320;60630;-83
2022/11/25 10:08:20;;;;;;;;;;;;;;;18.17;46.43;100960.91;101826;1320;73690;-86
2022/11/25 10:10:46;;;;;;;;;;;;;;;18.14;46.52;100964.48;101836;1320;75143;-85
2022/11/25 10:13:19;;;;;;;;;;;;;;;18.12;46.70;100960.70;102754;1336;60272;-83
2022/11/25 10:15:45;;;;;;;;;;;;;;;18.10;46.55;100954.02;102664;1330;59934;-83
2022/11/25 10:18:31;;;;;;;;;;;;;;;18.09;46.64;100952.10;102751;1335;60304;-83
2022/11/25 10:20:56;;;;;;;;;;;;;;;18.11;46.65;100958.60;102651;1331;75331;-82
2022/11/25 10:23:23;;;;;;;;;;;;;;;18.14;46.80;100955.77;101882;1320;62141;-84
2022/11/25 10:25:51;;;;;;;;;;;;;;;18.17;46.71;100956.83;101449;1323;63778;-84
2022/11/25 10:28:18;;;;;;;;;;;;;;;18.19;46.64;100955.45;101239;1316;71102;-84
2022/11/25 10:30:53;;;;;;;;;;;;;;;18.19;46.48;100957.98;101506;1313;76324;-84
2022/11/25 10:33:23;;;;;;;;;;;;;;;18.17;46.33;100955.95;101672;1315;62006;-85
2022/11/25 10:35:58;;;;;;;;;;;;;;;18.11;46.32;100958.41;101722;1317;62090;-85
2022/11/25 10:38:28;;;;;;;;;;;;;;;18.08;46.25;100956.06;101676;1316;73920;-84
2022/11/25 10:40:54;;;;;;;;;;;;;;;18.07;46.36;100956.11;101618;1309;76317;-84
2022/11/25 10:43:20;;;;;;;;;;;;;;;18.06;46.23;100956.55;101558;1317;62097;-85
2022/11/25 10:45:47;;;;;;;;;;;;;;;18.05;46.17;100957.52;101985;1316;62157;-84
2022/11/25 10:48:32;;;;;;;;;;;;;;;18.01;46.08;100957.20;102219;1310;61986;-83
2022/11/25 10:51:10;;;;;;;;;;;;;;;17.99;46.01;100959.27;102089;1317;75198;-83
2022/11/25 10:53:36;;;;;;;;;;;;;;;17.97;45.98;100956.71;102080;1317;61905;-84
2022/11/25 10:56:03;;;;;;;;;;;;;;;17.95;45.95;100952.54;102014;1321;62220;-84
2022/11/25 10:58:38;;;;;;;;;;;;;;;17.92;45.78;100950.20;101994;1315;61914;-84
2022/11/25 11:01:12;;;;;;;;;;;;;;;17.89;45.83;100948.89;102013;1315;75510;-84
2022/11/25 11:03:38;;;;;;;;;;;;;;;17.87;45.80;100949.05;102155;1318;60899;-85
2022/11/25 11:06:03;;;;;;;;;;;;;;;17.80;45.61;100952.64;102016;1317;62182;-84
2022/11/25 11:08:36;;;;;;;;;;;;;;;17.71;45.78;100949.39;102184;1319;60940;-83
2022/11/25 11:11:18;;;;;;;;;;;;;;;17.66;45.71;100945.21;102158;1317;76665;-84
2022/11/25 11:13:44;;;;;;;;;;;;;;;17.65;45.86;100944.89;102178;1317;62131;-85
2022/11/25 11:16:25;;;;;;;;;;;;;;;17.55;45.48;100943.84;102238;1317;60094;-84
2022/11/25 11:18:51;;;;;;;;;;;;;;;17.42;45.65;100947.37;102164;1309;72578;-84
2022/11/25 11:21:29;;;;;;;;;;;;;;;17.41;45.67;100945.63;102042;1323;62084;-85
2022/11/25 11:23:56;;;;;;;;;;;;;;;17.43;45.84;100947.98;102153;1331;61975;-84
2022/11/25 11:26:25;;;;;;;;;;;;;;;17.45;45.74;100948.27;102127;1309;62013;-83
2022/11/25 11:28:57;;;;;;;;;;;;;;;17.46;45.75;100949.98;102073;1312;71769;-84
2022/11/25 11:31:24;;;;;;;;;;;;;;;17.40;45.66;100944.94;102114;1316;75366;-84
2022/11/25 11:33:52;;;;;;;;;;;;;;;17.40;45.70;100946.58;102072;1320;62226;-84
2022/11/25 11:36:21;;;;;;;;;;;;;;;17.39;45.67;100945.36;102020;1311;61289;-84
2022/11/25 11:38:50;;;;;;;;;;;;;;;17.33;45.59;100940.36;102108;1317;73603;-84
2022/11/25 11:41:22;;;;;;;;;;;;;;;17.25;45.39;100939.53;101985;1318;75460;-84
2022/11/25 11:43:53;;;;;;;;;;;;;;;17.25;45.52;100941.14;102104;1316;62065;-84
2022/11/25 11:46:27;;;;;;;;;;;;;;;17.28;45.51;100939.58;102092;1317;62017;-83
2022/11/25 11:49:02;;;;;;;;;;;;;;;17.21;45.45;100938.49;102117;1317;72648;-84
2022/11/25 11:51:50;;;;;;;;;;;;;;;17.19;45.51;100935.77;102077;1317;76589;-82
2022/11/25 11:54:34;;;;;;;;;;;;;;;17.20;45.54;100939.10;102017;1312;61289;-84
2022/11/25 11:57:10;;;;;;;;;;;;;;;17.16;45.23;100942.49;102106;1315;62058;-84
2022/11/25 11:59:41;;;;;;;;;;;;;;;17.05;45.43;100938.25;102180;1317;73620;-84
2022/11/25 12:02:10;;;;;;;;;;;;;;;16.95;45.20;100939.65;103007;1332;76365;-85
2022/11/25 12:04:40;;;;;;;;;;;;;;;16.77;45.22;100936.63;103029;1326;60719;-85
2022/11/25 12:07:24;;;;;;;;;;;;;;;16.62;45.17;100935.98;102996;1332;60552;-85
2022/11/25 12:09:52;;;;;;;;;;;;;;;16.47;45.23;100935.15;102947;1332;73747;-84
2022/11/25 12:12:18;;;;;;;;;;;;;;;16.41;45.43;100937.35;102653;1326;75470;-83
2022/11/25 12:14:50;;;;;;;;;;;;;;;16.35;45.16;100935.39;102309;1325;62112;-84
2022/11/25 12:17:24;;;;;;;;;;;;;;;16.22;45.26;100937.05;102215;1333;60615;-84
2022/11/25 12:20:10;;;;;;;;;;;;;;;16.21;45.41;100940.99;102087;1324;73683;-84
2022/11/25 12:22:37;;;;;;;;;;;;;;;16.31;45.46;100943.37;102067;1320;75345;-84
2022/11/25 12:25:08;;;;;;;;;;;;;;;16.38;45.39;100947.81;101971;1319;62122;-84
2022/11/25 12:27:45;;;;;;;;;;;;;;;16.40;45.33;100948.08;102053;1317;62045;-83
2022/11/25 12:30:10;;;;;;;;;;;;;;;16.45;45.32;100946.78;102005;1332;73578;-84
2022/11/25 12:32:51;;;;;;;;;;;;;;;16.54;45.39;100949.35;102034;1317;62182;-84
2022/11/25 12:35:38;;;;;;;;;;;;;;;16.63;45.53;100950.66;102099;1312;62033;-84
2022/11/25 12:38:12;;;;;;;;;;;;;;;16.75;45.62;100952.93;102550;1324;61768;-84
2022/11/25 12:40:40;;;;;;;;;;;;;;;16.85;45.62;100950.85;101978;1328;72804;-85
2022/11/25 12:43:35;;;;;;;;;;;;;;;16.88;45.48;100951.40;102110;1326;75283;-83
2022/11/25 12:46:05;;;;;;;;;;;;;;;16.93;45.50;100956.84;101824;1324;62197;-84